createdAt,value
2023-03-19T00:00:08.862Z,100843.47
2023-03-19T00:03:11.473Z,100835.62
2023-03-19T00:06:14.492Z,100848.03
2023-03-19T00:09:18.150Z,100831.47
2023-03-19T00:12:21.182Z,100830.34
2023-03-19T00:15:23.853Z,100845.56
2023-03-19T00:18:26.966Z,100838.22
2023-03-19T00:21:30.748Z,100841.75
2023-03-19T00:24:34.668Z,100843.16
2023-03-19T00:27:38.289Z,100827.03
2023-03-19T00:30:41.332Z,100836.44
2023-03-19T00:33:45.336Z,100834.06
2023-03-19T00:36:48.938Z,100830.19
2023-03-19T00:39:51.535Z,100826.19
2023-03-19T00:42:54.527Z,100835.91
2023-03-19T00:45:57.191Z,100828.59
2023-03-19T00:49:00.438Z,100822.22
2023-03-19T00:52:03.445Z,100821.41
2023-03-19T00:55:06.899Z,100828.12
2023-03-19T00:58:10.430Z,100809.94
2023-03-19T01:01:16.398Z,100824.00
2023-03-19T01:04:19.402Z,100806.91
2023-03-19T01:07:22.719Z,100811.88
2023-03-19T01:10:26.128Z,100807.06
2023-03-19T01:13:29.014Z,100812.81
2023-03-19T01:16:31.987Z,100804.00
2023-03-19T01:19:34.971Z,100815.69
2023-03-19T01:22:37.865Z,100817.91
2023-03-19T01:25:40.882Z,100819.34
2023-03-19T01:28:44.133Z,100823.34
2023-03-19T01:31:47.440Z,100801.12
2023-03-19T01:34:50.524Z,100801.16
2023-03-19T01:37:53.519Z,100820.63
2023-03-19T01:40:57.252Z,100816.19
2023-03-19T01:44:00.493Z,100794.13
2023-03-19T01:47:08.099Z,100791.09
2023-03-19T01:50:38.382Z,100792.22
2023-03-19T01:53:50.062Z,100787.91
2023-03-19T01:56:59.750Z,100789.50
2023-03-19T02:00:05.080Z,100792.19
2023-03-19T02:03:19.099Z,100784.72
2023-03-19T02:06:24.188Z,100770.50
2023-03-19T02:09:28.683Z,100776.72
2023-03-19T02:12:32.373Z,100765.22
2023-03-19T02:15:35.054Z,100766.13
2023-03-19T02:18:38.195Z,100768.50
2023-03-19T02:21:41.287Z,100765.16
2023-03-19T02:25:02.796Z,100769.88
2023-03-19T02:28:07.792Z,100765.50
2023-03-19T02:31:13.008Z,100778.75
2023-03-19T02:34:21.998Z,100782.84
2023-03-19T02:37:28.343Z,100780.31
2023-03-19T02:40:36.213Z,100776.63
2023-03-19T02:43:42.125Z,100778.97
2023-03-19T02:46:44.777Z,100779.47
2023-03-19T02:49:48.262Z,100773.56
2023-03-19T02:52:50.962Z,100764.91
2023-03-19T02:55:53.899Z,100777.31
2023-03-19T02:58:56.926Z,100774.28
2023-03-19T03:02:00.254Z,100765.03
2023-03-19T03:05:03.055Z,100775.31
2023-03-19T03:08:06.115Z,100773.78
2023-03-19T03:11:09.889Z,100780.41
2023-03-19T03:14:12.846Z,100761.47
2023-03-19T03:17:16.245Z,100777.53
2023-03-19T03:20:19.964Z,100769.41
2023-03-19T03:23:22.972Z,100774.47
2023-03-19T03:26:25.826Z,100775.63
2023-03-19T03:29:28.764Z,100759.31
2023-03-19T03:32:32.433Z,100771.53
2023-03-19T03:35:35.356Z,100770.13
2023-03-19T03:38:39.022Z,100765.63
2023-03-19T03:41:41.668Z,100767.84
2023-03-19T03:44:44.878Z,100744.16
2023-03-19T03:47:48.123Z,100757.75
2023-03-19T03:50:51.751Z,100760.94
2023-03-19T03:53:55.301Z,100752.13
2023-03-19T03:56:58.284Z,100756.66
2023-03-19T04:00:01.189Z,100761.03
2023-03-19T04:03:04.395Z,100757.34
2023-03-19T04:06:07.812Z,100757.03
2023-03-19T04:09:10.538Z,100758.22
2023-03-19T04:12:14.216Z,100750.94
2023-03-19T04:15:18.166Z,100758.44
2023-03-19T04:18:21.431Z,100769.25
2023-03-19T04:21:24.097Z,100765.94
2023-03-19T04:24:27.713Z,100753.53
2023-03-19T04:27:30.767Z,100762.06
2023-03-19T04:30:35.443Z,100764.66
2023-03-19T04:33:38.929Z,100766.22
2023-03-19T04:36:42.445Z,100767.41
2023-03-19T04:39:45.250Z,100758.50
2023-03-19T04:42:48.396Z,100769.37
2023-03-19T04:45:52.545Z,100756.25
2023-03-19T04:48:56.278Z,100740.97
2023-03-19T04:51:59.350Z,100742.47
2023-03-19T04:55:02.597Z,100757.28
2023-03-19T04:58:06.072Z,100765.09
2023-03-19T05:01:09.688Z,100757.41
2023-03-19T05:04:14.514Z,100755.37
2023-03-19T05:07:17.902Z,100769.50
2023-03-19T05:10:21.185Z,100778.63
2023-03-19T05:13:24.136Z,100766.31
2023-03-19T05:16:27.688Z,100760.91
2023-03-19T05:19:31.086Z,100779.63
2023-03-19T05:22:34.403Z,100781.09
2023-03-19T05:25:37.459Z,100782.69
2023-03-19T05:28:41.081Z,100773.50
2023-03-19T05:31:44.075Z,100777.69
2023-03-19T05:34:46.901Z,100783.44
2023-03-19T05:37:50.019Z,100775.81
2023-03-19T05:40:52.890Z,100781.56
2023-03-19T05:43:56.330Z,100790.56
2023-03-19T05:46:59.918Z,100792.22
2023-03-19T05:50:03.333Z,100788.19
2023-03-19T05:53:06.236Z,100801.84
2023-03-19T05:56:10.320Z,100797.56
2023-03-19T05:59:15.442Z,100791.94
2023-03-19T06:02:19.568Z,100801.62
2023-03-19T06:05:23.302Z,100810.75
2023-03-19T06:08:27.224Z,100798.59
2023-03-19T06:11:31.910Z,100816.75
2023-03-19T06:14:36.978Z,100811.81
2023-03-19T06:17:41.226Z,100810.16
2023-03-19T06:20:44.611Z,100803.97
2023-03-19T06:23:48.505Z,100795.88
2023-03-19T06:26:51.611Z,100804.88
2023-03-19T06:29:55.045Z,100816.06
2023-03-19T06:32:58.172Z,100812.56
2023-03-19T06:36:01.734Z,100814.00
2023-03-19T06:39:05.383Z,100825.34
2023-03-19T06:42:09.273Z,100820.81
2023-03-19T06:45:12.406Z,100819.34
2023-03-19T06:48:15.951Z,100820.75
2023-03-19T06:51:18.651Z,100812.56
2023-03-19T06:54:21.728Z,100817.66
2023-03-19T06:57:24.264Z,100817.25
2023-03-19T07:00:27.973Z,100816.19
2023-03-19T07:03:31.454Z,100822.19
2023-03-19T07:06:35.349Z,100832.12
2023-03-19T07:09:38.084Z,100833.16
2023-03-19T07:12:41.262Z,100834.56
2023-03-19T07:15:43.866Z,100827.94
2023-03-19T07:18:46.824Z,100827.84
2023-03-19T07:21:49.474Z,100808.69
2023-03-19T07:24:52.662Z,100826.59
2023-03-19T07:27:56.146Z,100833.34
2023-03-19T07:30:59.107Z,100817.88
2023-03-19T07:34:01.990Z,100816.22
2023-03-19T07:37:05.270Z,100817.00
2023-03-19T07:40:08.569Z,100827.37
2023-03-19T07:43:11.602Z,100824.19
2023-03-19T07:46:14.364Z,100823.53
2023-03-19T07:49:17.606Z,100823.41
2023-03-19T07:52:20.485Z,100831.38
2023-03-19T07:55:23.923Z,100841.72
2023-03-19T07:58:27.053Z,100829.63
2023-03-19T08:01:30.149Z,100826.66
2023-03-19T08:04:33.185Z,100812.31
2023-03-19T08:07:36.550Z,100825.06
2023-03-19T08:10:39.665Z,100825.84
2023-03-19T08:13:42.914Z,100830.25
2023-03-19T08:16:45.931Z,100820.69
2023-03-19T08:19:48.534Z,100824.50
2023-03-19T08:22:51.573Z,100823.69
2023-03-19T08:25:55.569Z,100813.41
2023-03-19T08:28:59.414Z,100824.63
2023-03-19T08:32:02.029Z,100812.09
2023-03-19T08:35:06.211Z,100829.31
2023-03-19T08:38:08.895Z,100825.94
2023-03-19T08:41:11.843Z,100835.53
2023-03-19T08:44:14.769Z,100834.06
2023-03-19T08:47:17.890Z,100836.81
2023-03-19T08:50:20.715Z,100839.50
2023-03-19T08:53:24.324Z,100819.69
2023-03-19T08:56:26.984Z,100830.00
2023-03-19T08:59:33.347Z,100829.69
2023-03-19T09:02:37.037Z,100829.69
2023-03-19T09:05:39.910Z,100835.62
2023-03-19T09:08:42.793Z,100838.13
2023-03-19T09:11:46.334Z,100835.03
2023-03-19T09:14:49.636Z,100826.72
2023-03-19T09:17:52.661Z,100822.16
2023-03-19T09:20:55.378Z,100816.75
2023-03-19T09:23:58.359Z,100815.41
2023-03-19T09:27:01.197Z,100823.37
2023-03-19T09:30:05.031Z,100815.31
2023-03-19T09:33:08.289Z,100825.41
2023-03-19T09:36:11.296Z,100812.87
2023-03-19T09:39:14.009Z,100820.81
2023-03-19T09:42:44.344Z,100821.16
2023-03-19T09:45:47.921Z,100821.72
2023-03-19T09:48:57.571Z,100808.38
2023-03-19T09:52:19.264Z,100807.03
2023-03-19T09:55:36.011Z,100809.00
2023-03-19T09:58:39.372Z,100819.28
2023-03-19T10:01:50.237Z,100814.28
2023-03-19T10:05:18.354Z,100804.59
2023-03-19T10:08:50.034Z,100808.38
2023-03-19T10:12:12.197Z,100795.25
2023-03-19T10:15:32.757Z,100794.81
2023-03-19T10:18:39.499Z,100793.50
2023-03-19T10:22:41.184Z,100784.72
2023-03-19T10:25:45.007Z,100789.22
2023-03-19T10:29:20.825Z,100795.66
2023-03-19T10:32:55.182Z,100791.53
2023-03-19T10:36:10.463Z,100787.81
2023-03-19T10:39:16.588Z,100797.97
2023-03-19T10:42:45.700Z,100786.97
2023-03-19T10:45:49.465Z,100776.56
2023-03-19T10:48:52.056Z,100773.81
2023-03-19T10:51:57.669Z,100765.44
2023-03-19T10:55:24.353Z,100763.16
2023-03-19T10:58:29.626Z,100752.72
2023-03-19T11:01:35.591Z,100735.53
2023-03-19T11:04:38.770Z,100727.94
2023-03-19T11:07:41.596Z,100734.78
2023-03-19T11:10:49.920Z,100737.22
2023-03-19T11:13:53.068Z,100733.22
2023-03-19T11:16:57.591Z,100731.03
2023-03-19T11:20:28.624Z,100719.06
2023-03-19T11:23:39.648Z,100724.81
2023-03-19T11:26:42.260Z,100718.78
2023-03-19T11:29:45.888Z,100692.06
2023-03-19T11:33:03.411Z,100696.75
2023-03-19T11:36:16.761Z,100700.59
2023-03-19T11:39:27.681Z,100697.84
2023-03-19T11:42:39.696Z,100690.12
2023-03-19T11:45:57.636Z,100679.97
2023-03-19T11:49:27.301Z,100672.97
2023-03-19T11:53:01.069Z,100677.34
2023-03-19T11:56:29.936Z,100667.22
2023-03-19T11:59:59.350Z,100656.34
2023-03-19T12:03:17.587Z,100654.88
2023-03-19T12:06:32.385Z,100651.41
2023-03-19T12:10:03.351Z,100655.34
2023-03-19T12:13:29.773Z,100638.81
2023-03-19T12:16:51.134Z,100635.28
2023-03-19T12:20:13.196Z,100631.34
2023-03-19T12:23:42.360Z,100628.22
2023-03-19T12:27:00.359Z,100617.56
2023-03-19T12:30:21.809Z,100617.16
2023-03-19T12:33:46.623Z,100619.53
2023-03-19T12:36:56.427Z,100612.03
2023-03-19T12:40:17.196Z,100606.91
2023-03-19T12:43:34.273Z,100591.94
2023-03-19T12:46:43.834Z,100605.34
2023-03-19T12:49:59.289Z,100598.22
2023-03-19T12:53:06.433Z,100603.00
2023-03-19T12:56:54.279Z,100600.59
2023-03-19T13:00:10.739Z,100592.72
2023-03-19T13:03:22.626Z,100587.59
2023-03-19T13:06:37.088Z,100593.47
2023-03-19T13:09:57.886Z,100594.66
2023-03-19T13:13:23.967Z,100584.06
2023-03-19T13:16:29.705Z,100588.34
2023-03-19T13:19:54.346Z,100584.78
2023-03-19T13:23:02.446Z,100591.03
2023-03-19T13:26:09.714Z,100580.03
2023-03-19T13:29:25.785Z,100579.66
2023-03-19T13:32:54.570Z,100570.22
2023-03-19T13:36:00.954Z,100567.03
2023-03-19T13:39:11.370Z,100555.56
2023-03-19T13:42:20.014Z,100557.16
2023-03-19T13:45:36.095Z,100552.84
2023-03-19T13:48:45.247Z,100548.50
2023-03-19T13:51:52.088Z,100534.66
2023-03-19T13:54:58.236Z,100527.16
2023-03-19T13:58:17.064Z,100524.38
2023-03-19T14:01:28.417Z,100534.25
2023-03-19T14:04:34.457Z,100534.34
2023-03-19T14:07:42.498Z,100528.03
2023-03-19T14:10:54.889Z,100529.16
2023-03-19T14:14:02.656Z,100520.81
2023-03-19T14:17:06.071Z,100525.53
2023-03-19T14:20:13.216Z,100525.50
2023-03-19T14:23:39.532Z,100521.56
2023-03-19T14:26:44.560Z,100514.47
2023-03-19T14:29:49.794Z,100507.38
2023-03-19T14:32:55.781Z,100516.84
2023-03-19T14:36:03.190Z,100512.53
2023-03-19T14:39:21.742Z,100506.25
2023-03-19T14:42:30.664Z,100512.97
2023-03-19T14:45:52.596Z,100514.56
2023-03-19T14:49:46.096Z,100514.13
2023-03-19T14:53:14.972Z,100490.16
2023-03-19T14:56:27.040Z,100501.56
2023-03-19T14:59:38.150Z,100502.00
2023-03-19T15:02:55.237Z,100504.38
2023-03-19T15:06:00.682Z,100502.41
2023-03-19T15:09:16.400Z,100488.59
2023-03-19T15:12:33.782Z,100501.22
2023-03-19T15:15:55.755Z,100504.00
2023-03-19T15:18:58.565Z,100498.09
2023-03-19T15:22:50.627Z,100499.28
2023-03-19T22:20:46.723Z,100563.91
2023-03-19T22:23:50.925Z,100578.16
2023-03-19T22:26:57.757Z,100565.75
2023-03-19T22:30:01.799Z,100557.09
2023-03-19T22:33:17.674Z,100558.94
2023-03-19T22:36:20.969Z,100557.19
2023-03-19T22:39:24.041Z,100551.19
2023-03-19T22:42:27.334Z,100550.75
2023-03-19T22:45:33.242Z,100558.16
2023-03-19T22:48:37.440Z,100550.31
2023-03-19T22:51:40.072Z,100547.12
2023-03-19T22:54:43.171Z,100551.38
2023-03-19T22:57:46.502Z,100558.44
2023-03-19T23:00:50.273Z,100552.59
2023-03-19T23:03:53.249Z,100553.66
2023-03-19T23:06:57.394Z,100554.47
2023-03-19T23:10:00.856Z,100549.59
2023-03-19T23:13:03.745Z,100537.09
2023-03-19T23:16:20.878Z,100521.44
2023-03-19T23:19:28.361Z,100532.78
2023-03-19T23:22:31.755Z,100539.84
2023-03-19T23:25:35.016Z,100538.69
2023-03-19T23:28:37.995Z,100539.47
2023-03-19T23:31:40.870Z,100541.78
2023-03-19T23:34:56.783Z,100532.78
2023-03-19T23:38:01.742Z,100523.72
2023-03-19T23:41:05.095Z,100526.78
2023-03-19T23:44:11.779Z,100545.19
2023-03-19T23:47:14.916Z,100538.06
2023-03-19T23:50:18.299Z,100539.56
2023-03-19T23:53:25.358Z,100543.44
2023-03-19T23:56:28.460Z,100532.50
2023-03-19T23:59:35.749Z,100532.34
